sensor_id;sensor_type;location;lat;lon;timestamp;P1;durP1;ratioP1;P2;durP2;ratioP2
71503;SDS011;59323;50.874;7.028;2023-01-15T00:01:36;0.87;;;0.30;;
71503;SDS011;59323;50.874;7.028;2023-01-15T00:04:02;1.83;;;0.20;;
71503;SDS011;59323;50.874;7.028;2023-01-15T00:06:30;0.70;;;0.23;;
71503;SDS011;59323;50.874;7.028;2023-01-15T00:08:56;4.22;;;0.50;;
71503;SDS011;59323;50.874;7.028;2023-01-15T00:11:23;2.38;;;0.30;;
71503;SDS011;59323;50.874;7.028;2023-01-15T00:13:48;2.33;;;0.35;;
71503;SDS011;59323;50.874;7.028;2023-01-15T00:16:18;1.70;;;0.37;;
71503;SDS011;59323;50.874;7.028;2023-01-15T00:18:49;1.58;;;0.25;;
71503;SDS011;59323;50.874;7.028;2023-01-15T00:21:16;2.15;;;0.30;;
71503;SDS011;59323;50.874;7.028;2023-01-15T00:23:41;2.37;;;0.30;;
71503;SDS011;59323;50.874;7.028;2023-01-15T00:26:26;1.33;;;0.30;;
71503;SDS011;59323;50.874;7.028;2023-01-15T00:29:12;0.80;;;0.40;;
71503;SDS011;59323;50.874;7.028;2023-01-15T00:31:38;3.00;;;0.40;;
71503;SDS011;59323;50.874;7.028;2023-01-15T00:34:04;3.63;;;0.30;;
71503;SDS011;59323;50.874;7.028;2023-01-15T00:36:29;0.60;;;0.20;;
71503;SDS011;59323;50.874;7.028;2023-01-15T00:38:55;2.87;;;0.30;;
71503;SDS011;59323;50.874;7.028;2023-01-15T00:41:20;2.97;;;0.97;;
71503;SDS011;59323;50.874;7.028;2023-01-15T00:43:46;2.77;;;0.50;;
71503;SDS011;59323;50.874;7.028;2023-01-15T00:46:11;1.40;;;0.43;;
71503;SDS011;59323;50.874;7.028;2023-01-15T00:48:37;5.83;;;0.30;;
71503;SDS011;59323;50.874;7.028;2023-01-15T00:51:03;2.00;;;0.25;;
71503;SDS011;59323;50.874;7.028;2023-01-15T00:53:29;4.47;;;0.40;;
71503;SDS011;59323;50.874;7.028;2023-01-15T00:55:55;3.40;;;0.40;;
71503;SDS011;59323;50.874;7.028;2023-01-15T00:58:20;5.00;;;0.70;;
71503;SDS011;59323;50.874;7.028;2023-01-15T01:00:46;4.10;;;0.53;;
71503;SDS011;59323;50.874;7.028;2023-01-15T01:03:11;2.40;;;0.40;;
71503;SDS011;59323;50.874;7.028;2023-01-15T01:05:36;2.73;;;0.50;;
71503;SDS011;59323;50.874;7.028;2023-01-15T01:08:02;4.13;;;0.40;;
71503;SDS011;59323;50.874;7.028;2023-01-15T01:10:27;3.03;;;0.52;;
71503;SDS011;59323;50.874;7.028;2023-01-15T01:12:52;4.13;;;0.50;;
71503;SDS011;59323;50.874;7.028;2023-01-15T01:15:20;1.50;;;0.40;;
71503;SDS011;59323;50.874;7.028;2023-01-15T01:17:46;2.40;;;0.30;;
71503;SDS011;59323;50.874;7.028;2023-01-15T01:20:12;1.35;;;0.40;;
71503;SDS011;59323;50.874;7.028;2023-01-15T01:22:39;1.15;;;0.40;;
71503;SDS011;59323;50.874;7.028;2023-01-15T01:25:05;2.77;;;0.20;;
71503;SDS011;59323;50.874;7.028;2023-01-15T01:27:31;3.00;;;0.45;;
71503;SDS011;59323;50.874;7.028;2023-01-15T01:29:56;0.83;;;0.20;;
71503;SDS011;59323;50.874;7.028;2023-01-15T01:32:21;1.17;;;0.30;;
71503;SDS011;59323;50.874;7.028;2023-01-15T01:34:47;2.17;;;0.30;;
71503;SDS011;59323;50.874;7.028;2023-01-15T01:37:12;2.37;;;0.60;;
71503;SDS011;59323;50.874;7.028;2023-01-15T01:39:37;1.43;;;0.50;;
71503;SDS011;59323;50.874;7.028;2023-01-15T01:42:03;4.33;;;1.03;;
71503;SDS011;59323;50.874;7.028;2023-01-15T01:46:57;1.52;;;0.70;;
71503;SDS011;59323;50.874;7.028;2023-01-15T01:49:23;3.80;;;0.47;;
71503;SDS011;59323;50.874;7.028;2023-01-15T01:51:50;2.60;;;0.75;;
71503;SDS011;59323;50.874;7.028;2023-01-15T01:54:21;3.10;;;0.50;;
71503;SDS011;59323;50.874;7.028;2023-01-15T01:56:49;3.42;;;0.50;;
71503;SDS011;59323;50.874;7.028;2023-01-15T01:59:16;1.47;;;0.33;;
71503;SDS011;59323;50.874;7.028;2023-01-15T02:01:44;1.42;;;0.60;;
71503;SDS011;59323;50.874;7.028;2023-01-15T02:04:10;2.40;;;0.63;;
71503;SDS011;59323;50.874;7.028;2023-01-15T02:06:36;4.93;;;0.60;;
71503;SDS011;59323;50.874;7.028;2023-01-15T02:09:03;5.18;;;0.55;;
71503;SDS011;59323;50.874;7.028;2023-01-15T02:11:29;3.30;;;0.63;;
71503;SDS011;59323;50.874;7.028;2023-01-15T02:13:59;1.10;;;0.40;;
71503;SDS011;59323;50.874;7.028;2023-01-15T02:16:47;2.90;;;0.70;;
71503;SDS011;59323;50.874;7.028;2023-01-15T02:22:13;3.95;;;0.70;;
71503;SDS011;59323;50.874;7.028;2023-01-15T02:27:37;1.85;;;0.50;;
71503;SDS011;59323;50.874;7.028;2023-01-15T02:30:11;1.73;;;0.50;;
71503;SDS011;59323;50.874;7.028;2023-01-15T02:32:50;1.48;;;0.60;;
71503;SDS011;59323;50.874;7.028;2023-01-15T02:36:01;3.17;;;0.50;;
71503;SDS011;59323;50.874;7.028;2023-01-15T02:38:21;1.13;;;0.40;;
71503;SDS011;59323;50.874;7.028;2023-01-15T02:40:51;2.67;;;0.40;;
71503;SDS011;59323;50.874;7.028;2023-01-15T02:43:20;1.60;;;0.32;;
71503;SDS011;59323;50.874;7.028;2023-01-15T02:45:49;1.55;;;0.40;;
71503;SDS011;59323;50.874;7.028;2023-01-15T02:48:17;1.10;;;0.40;;
71503;SDS011;59323;50.874;7.028;2023-01-15T02:50:48;1.93;;;0.50;;
71503;SDS011;59323;50.874;7.028;2023-01-15T02:53:20;2.47;;;0.40;;
71503;SDS011;59323;50.874;7.028;2023-01-15T02:55:49;2.53;;;0.35;;
71503;SDS011;59323;50.874;7.028;2023-01-15T02:58:22;3.13;;;0.60;;
71503;SDS011;59323;50.874;7.028;2023-01-15T03:00:53;1.88;;;0.60;;
71503;SDS011;59323;50.874;7.028;2023-01-15T03:03:27;1.90;;;0.67;;
71503;SDS011;59323;50.874;7.028;2023-01-15T03:06:40;3.00;;;0.80;;
71503;SDS011;59323;50.874;7.028;2023-01-15T03:08:45;1.00;;;0.50;;
71503;SDS011;59323;50.874;7.028;2023-01-15T03:11:15;2.38;;;0.50;;
71503;SDS011;59323;50.874;7.028;2023-01-15T03:13:50;1.30;;;0.30;;
71503;SDS011;59323;50.874;7.028;2023-01-15T03:16:27;1.38;;;0.30;;
71503;SDS011;59323;50.874;7.028;2023-01-15T03:19:26;1.50;;;0.50;;
71503;SDS011;59323;50.874;7.028;2023-01-15T03:21:57;3.83;;;0.55;;
71503;SDS011;59323;50.874;7.028;2023-01-15T03:24:37;2.97;;;0.60;;
71503;SDS011;59323;50.874;7.028;2023-01-15T03:27:06;2.57;;;0.37;;
71503;SDS011;59323;50.874;7.028;2023-01-15T03:29:32;1.65;;;0.50;;
71503;SDS011;59323;50.874;7.028;2023-01-15T03:32:02;1.35;;;0.40;;
71503;SDS011;59323;50.874;7.028;2023-01-15T03:34:42;3.90;;;0.50;;
71503;SDS011;59323;50.874;7.028;2023-01-15T03:37:13;1.60;;;0.50;;
71503;SDS011;59323;50.874;7.028;2023-01-15T03:39:39;3.08;;;0.80;;
71503;SDS011;59323;50.874;7.028;2023-01-15T03:47:52;4.45;;;0.90;;
71503;SDS011;59323;50.874;7.028;2023-01-15T03:53:17;5.82;;;0.77;;
71503;SDS011;59323;50.874;7.028;2023-01-15T04:00:44;2.63;;;0.30;;
71503;SDS011;59323;50.874;7.028;2023-01-15T04:03:16;3.35;;;0.40;;
71503;SDS011;59323;50.874;7.028;2023-01-15T04:05:43;3.83;;;0.30;;
71503;SDS011;59323;50.874;7.028;2023-01-15T04:08:10;1.92;;;0.30;;
71503;SDS011;59323;50.874;7.028;2023-01-15T04:10:37;1.75;;;0.28;;
71503;SDS011;59323;50.874;7.028;2023-01-15T04:13:02;2.10;;;0.40;;
71503;SDS011;59323;50.874;7.028;2023-01-15T04:15:28;2.73;;;0.40;;
71503;SDS011;59323;50.874;7.028;2023-01-15T04:17:53;2.60;;;0.30;;
71503;SDS011;59323;50.874;7.028;2023-01-15T04:20:18;3.33;;;0.50;;
71503;SDS011;59323;50.874;7.028;2023-01-15T04:22:44;5.93;;;0.83;;
71503;SDS011;59323;50.874;7.028;2023-01-15T04:25:09;2.37;;;0.33;;
71503;SDS011;59323;50.874;7.028;2023-01-15T04:27:35;3.05;;;0.40;;
71503;SDS011;59323;50.874;7.028;2023-01-15T04:30:00;2.73;;;0.40;;
71503;SDS011;59323;50.874;7.028;2023-01-15T04:32:25;4.93;;;0.40;;
71503;SDS011;59323;50.874;7.028;2023-01-15T04:34:51;4.50;;;0.57;;
71503;SDS011;59323;50.874;7.028;2023-01-15T04:37:17;1.43;;;0.40;;
71503;SDS011;59323;50.874;7.028;2023-01-15T04:39:43;3.85;;;0.45;;
71503;SDS011;59323;50.874;7.028;2023-01-15T04:42:12;1.40;;;0.30;;
71503;SDS011;59323;50.874;7.028;2023-01-15T04:44:57;3.03;;;0.30;;
71503;SDS011;59323;50.874;7.028;2023-01-15T04:47:22;3.93;;;0.53;;
71503;SDS011;59323;50.874;7.028;2023-01-15T04:49:48;4.53;;;0.40;;
71503;SDS011;59323;50.874;7.028;2023-01-15T04:52:14;3.93;;;0.40;;
71503;SDS011;59323;50.874;7.028;2023-01-15T04:54:39;5.27;;;0.30;;
71503;SDS011;59323;50.874;7.028;2023-01-15T04:57:05;2.30;;;0.38;;
71503;SDS011;59323;50.874;7.028;2023-01-15T04:59:30;2.10;;;0.30;;
71503;SDS011;59323;50.874;7.028;2023-01-15T05:01:55;5.60;;;0.57;;
71503;SDS011;59323;50.874;7.028;2023-01-15T05:04:21;4.13;;;0.50;;
71503;SDS011;59323;50.874;7.028;2023-01-15T05:06:46;2.08;;;0.40;;
71503;SDS011;59323;50.874;7.028;2023-01-15T05:09:12;4.60;;;0.43;;
71503;SDS011;59323;50.874;7.028;2023-01-15T05:11:38;3.30;;;0.30;;
71503;SDS011;59323;50.874;7.028;2023-01-15T05:14:04;5.90;;;0.55;;
71503;SDS011;59323;50.874;7.028;2023-01-15T05:16:30;3.80;;;0.47;;
71503;SDS011;59323;50.874;7.028;2023-01-15T05:18:58;5.30;;;0.50;;
71503;SDS011;59323;50.874;7.028;2023-01-15T05:21:25;4.40;;;0.45;;
71503;SDS011;59323;50.874;7.028;2023-01-15T05:23:55;3.55;;;0.40;;
71503;SDS011;59323;50.874;7.028;2023-01-15T05:26:22;4.13;;;0.40;;
71503;SDS011;59323;50.874;7.028;2023-01-15T05:28:49;3.53;;;0.80;;
71503;SDS011;59323;50.874;7.028;2023-01-15T05:31:17;4.20;;;0.68;;
71503;SDS011;59323;50.874;7.028;2023-01-15T05:33:44;4.05;;;0.70;;
71503;SDS011;59323;50.874;7.028;2023-01-15T05:36:11;2.13;;;0.60;;
71503;SDS011;59323;50.874;7.028;2023-01-15T05:38:38;3.30;;;0.82;;
71503;SDS011;59323;50.874;7.028;2023-01-15T05:41:04;3.47;;;0.80;;
71503;SDS011;59323;50.874;7.028;2023-01-15T05:43:54;4.47;;;0.60;;
71503;SDS011;59323;50.874;7.028;2023-01-15T05:46:22;4.37;;;0.60;;
71503;SDS011;59323;50.874;7.028;2023-01-15T05:48:48;4.15;;;0.55;;
71503;SDS011;59323;50.874;7.028;2023-01-15T05:51:13;3.08;;;0.60;;
71503;SDS011;59323;50.874;7.028;2023-01-15T05:53:38;3.50;;;0.80;;
71503;SDS011;59323;50.874;7.028;2023-01-15T05:56:04;2.97;;;0.90;;
71503;SDS011;59323;50.874;7.028;2023-01-15T05:58:30;4.82;;;0.85;;
71503;SDS011;59323;50.874;7.028;2023-01-15T06:00:56;5.80;;;0.90;;
71503;SDS011;59323;50.874;7.028;2023-01-15T06:03:22;3.27;;;0.80;;
71503;SDS011;59323;50.874;7.028;2023-01-15T06:05:49;3.20;;;0.93;;
71503;SDS011;59323;50.874;7.028;2023-01-15T06:08:15;11.65;;;1.15;;
71503;SDS011;59323;50.874;7.028;2023-01-15T06:10:43;7.23;;;0.67;;
71503;SDS011;59323;50.874;7.028;2023-01-15T06:13:09;5.53;;;0.50;;
71503;SDS011;59323;50.874;7.028;2023-01-15T06:15:34;3.80;;;0.50;;
71503;SDS011;59323;50.874;7.028;2023-01-15T06:18:00;2.80;;;0.28;;
71503;SDS011;59323;50.874;7.028;2023-01-15T06:20:25;3.90;;;0.60;;
71503;SDS011;59323;50.874;7.028;2023-01-15T06:22:51;2.77;;;0.33;;
71503;SDS011;59323;50.874;7.028;2023-01-15T06:25:16;2.43;;;0.50;;
71503;SDS011;59323;50.874;7.028;2023-01-15T06:27:41;2.57;;;0.30;;
71503;SDS011;59323;50.874;7.028;2023-01-15T06:30:09;2.60;;;0.70;;
71503;SDS011;59323;50.874;7.028;2023-01-15T06:32:35;2.97;;;0.30;;
71503;SDS011;59323;50.874;7.028;2023-01-15T06:35:00;4.47;;;0.50;;
71503;SDS011;59323;50.874;7.028;2023-01-15T06:37:26;2.50;;;0.40;;
71503;SDS011;59323;50.874;7.028;2023-01-15T06:39:51;3.23;;;0.40;;
71503;SDS011;59323;50.874;7.028;2023-01-15T06:42:16;2.53;;;0.40;;
71503;SDS011;59323;50.874;7.028;2023-01-15T06:45:00;4.07;;;0.30;;
71503;SDS011;59323;50.874;7.028;2023-01-15T06:47:45;1.95;;;0.28;;
71503;SDS011;59323;50.874;7.028;2023-01-15T06:50:11;2.75;;;0.10;;
71503;SDS011;59323;50.874;7.028;2023-01-15T06:52:37;3.00;;;0.30;;
71503;SDS011;59323;50.874;7.028;2023-01-15T06:55:03;2.70;;;0.60;;
71503;SDS011;59323;50.874;7.028;2023-01-15T06:57:29;3.23;;;0.20;;
71503;SDS011;59323;50.874;7.028;2023-01-15T06:59:54;1.37;;;0.10;;
71503;SDS011;59323;50.874;7.028;2023-01-15T07:02:19;0.73;;;0.20;;
71503;SDS011;59323;50.874;7.028;2023-01-15T07:04:45;0.20;;;0.20;;
71503;SDS011;59323;50.874;7.028;2023-01-15T07:07:12;1.13;;;0.20;;
71503;SDS011;59323;50.874;7.028;2023-01-15T07:09:39;0.93;;;0.20;;
71503;SDS011;59323;50.874;7.028;2023-01-15T07:12:04;1.60;;;0.23;;
71503;SDS011;59323;50.874;7.028;2023-01-15T07:14:30;0.20;;;0.20;;
71503;SDS011;59323;50.874;7.028;2023-01-15T07:16:57;2.10;;;0.17;;
71503;SDS011;59323;50.874;7.028;2023-01-15T07:19:25;0.70;;;0.20;;
71503;SDS011;59323;50.874;7.028;2023-01-15T07:21:51;0.20;;;0.20;;
71503;SDS011;59323;50.874;7.028;2023-01-15T07:24:17;1.20;;;0.20;;
71503;SDS011;59323;50.874;7.028;2023-01-15T07:26:42;0.88;;;0.25;;
71503;SDS011;59323;50.874;7.028;2023-01-15T07:29:09;2.00;;;0.50;;
71503;SDS011;59323;50.874;7.028;2023-01-15T07:31:34;1.20;;;0.30;;
71503;SDS011;59323;50.874;7.028;2023-01-15T07:34:00;0.70;;;0.20;;
71503;SDS011;59323;50.874;7.028;2023-01-15T07:36:25;0.80;;;0.20;;
71503;SDS011;59323;50.874;7.028;2023-01-15T07:38:51;0.43;;;0.27;;
71503;SDS011;59323;50.874;7.028;2023-01-15T07:41:16;1.60;;;0.30;;
71503;SDS011;59323;50.874;7.028;2023-01-15T07:44:00;0.90;;;0.40;;
71503;SDS011;59323;50.874;7.028;2023-01-15T07:46:44;1.50;;;0.32;;
71503;SDS011;59323;50.874;7.028;2023-01-15T07:49:28;0.43;;;0.22;;
71503;SDS011;59323;50.874;7.028;2023-01-15T07:52:22;0.47;;;0.10;;
71503;SDS011;59323;50.874;7.028;2023-01-15T07:54:48;2.33;;;0.50;;
71503;SDS011;59323;50.874;7.028;2023-01-15T07:57:18;3.92;;;0.30;;
71503;SDS011;59323;50.874;7.028;2023-01-15T07:59:45;1.90;;;0.20;;
71503;SDS011;59323;50.874;7.028;2023-01-15T08:02:11;0.70;;;0.20;;
71503;SDS011;59323;50.874;7.028;2023-01-15T08:04:37;0.50;;;0.30;;
71503;SDS011;59323;50.874;7.028;2023-01-15T08:07:03;0.60;;;0.23;;
71503;SDS011;59323;50.874;7.028;2023-01-15T08:09:29;2.65;;;0.22;;
71503;SDS011;59323;50.874;7.028;2023-01-15T08:11:55;1.10;;;0.33;;
71503;SDS011;59323;50.874;7.028;2023-01-15T08:14:41;1.10;;;0.20;;
71503;SDS011;59323;50.874;7.028;2023-01-15T08:17:25;0.60;;;0.20;;
71503;SDS011;59323;50.874;7.028;2023-01-15T08:19:51;2.50;;;0.40;;
71503;SDS011;59323;50.874;7.028;2023-01-15T08:22:16;3.03;;;0.40;;
71503;SDS011;59323;50.874;7.028;2023-01-15T08:24:41;0.70;;;0.30;;
71503;SDS011;59323;50.874;7.028;2023-01-15T08:27:07;0.70;;;0.23;;
71503;SDS011;59323;50.874;7.028;2023-01-15T08:29:32;1.23;;;0.27;;
71503;SDS011;59323;50.874;7.028;2023-01-15T08:31:58;1.63;;;0.30;;
71503;SDS011;59323;50.874;7.028;2023-01-15T08:34:23;1.70;;;0.40;;
71503;SDS011;59323;50.874;7.028;2023-01-15T08:36:48;2.05;;;0.30;;
71503;SDS011;59323;50.874;7.028;2023-01-15T08:39:17;1.90;;;0.30;;
71503;SDS011;59323;50.874;7.028;2023-01-15T08:41:42;1.35;;;0.20;;
71503;SDS011;59323;50.874;7.028;2023-01-15T08:44:08;4.07;;;0.40;;
71503;SDS011;59323;50.874;7.028;2023-01-15T08:46:34;1.75;;;0.25;;
71503;SDS011;59323;50.874;7.028;2023-01-15T08:48:59;0.77;;;0.30;;
71503;SDS011;59323;50.874;7.028;2023-01-15T08:51:24;1.43;;;0.30;;
71503;SDS011;59323;50.874;7.028;2023-01-15T08:53:50;1.37;;;0.40;;
71503;SDS011;59323;50.874;7.028;2023-01-15T08:56:17;2.33;;;0.38;;
71503;SDS011;59323;50.874;7.028;2023-01-15T08:58:43;0.75;;;0.38;;
71503;SDS011;59323;50.874;7.028;2023-01-15T09:01:09;2.97;;;0.30;;
71503;SDS011;59323;50.874;7.028;2023-01-15T09:03:36;0.70;;;0.28;;
71503;SDS011;59323;50.874;7.028;2023-01-15T09:06:02;3.78;;;0.32;;
71503;SDS011;59323;50.874;7.028;2023-01-15T09:08:29;1.52;;;0.40;;
71503;SDS011;59323;50.874;7.028;2023-01-15T09:10:56;1.83;;;0.50;;
71503;SDS011;59323;50.874;7.028;2023-01-15T09:13:22;3.35;;;0.50;;
71503;SDS011;59323;50.874;7.028;2023-01-15T09:15:48;5.57;;;1.00;;
71503;SDS011;59323;50.874;7.028;2023-01-15T09:18:16;1.67;;;0.60;;
71503;SDS011;59323;50.874;7.028;2023-01-15T09:20:46;6.40;;;0.80;;
71503;SDS011;59323;50.874;7.028;2023-01-15T09:23:12;3.50;;;0.50;;
71503;SDS011;59323;50.874;7.028;2023-01-15T09:25:38;5.03;;;0.83;;
71503;SDS011;59323;50.874;7.028;2023-01-15T09:28:03;3.20;;;0.60;;
71503;SDS011;59323;50.874;7.028;2023-01-15T09:30:28;2.90;;;0.50;;
71503;SDS011;59323;50.874;7.028;2023-01-15T09:32:55;4.43;;;0.70;;
71503;SDS011;59323;50.874;7.028;2023-01-15T09:35:21;4.38;;;0.60;;
71503;SDS011;59323;50.874;7.028;2023-01-15T09:37:52;3.30;;;0.60;;
71503;SDS011;59323;50.874;7.028;2023-01-15T09:40:20;6.53;;;0.73;;
71503;SDS011;59323;50.874;7.028;2023-01-15T09:43:01;7.57;;;0.82;;
71503;SDS011;59323;50.874;7.028;2023-01-15T09:45:36;7.22;;;0.98;;
71503;SDS011;59323;50.874;7.028;2023-01-15T09:51:01;6.13;;;1.15;;
71503;SDS011;59323;50.874;7.028;2023-01-15T09:56:01;4.50;;;0.90;;
71503;SDS011;59323;50.874;7.028;2023-01-15T09:58:33;4.27;;;0.83;;
71503;SDS011;59323;50.874;7.028;2023-01-15T10:01:01;10.70;;;1.13;;
71503;SDS011;59323;50.874;7.028;2023-01-15T10:06:06;4.10;;;1.10;;
71503;SDS011;59323;50.874;7.028;2023-01-15T10:08:48;5.13;;;1.00;;
71503;SDS011;59323;50.874;7.028;2023-01-15T10:13:47;5.67;;;1.00;;
71503;SDS011;59323;50.874;7.028;2023-01-15T10:16:17;5.60;;;0.77;;
71503;SDS011;59323;50.874;7.028;2023-01-15T10:18:47;4.00;;;0.70;;
71503;SDS011;59323;50.874;7.028;2023-01-15T10:32:42;10.52;;;0.90;;
71503;SDS011;59323;50.874;7.028;2023-01-15T10:45:51;6.15;;;1.17;;
71503;SDS011;59323;50.874;7.028;2023-01-15T10:48:42;6.47;;;0.50;;
71503;SDS011;59323;50.874;7.028;2023-01-15T10:51:24;7.67;;;0.90;;
71503;SDS011;59323;50.874;7.028;2023-01-15T10:53:57;6.07;;;0.63;;
71503;SDS011;59323;50.874;7.028;2023-01-15T10:59:10;4.78;;;0.70;;
71503;SDS011;59323;50.874;7.028;2023-01-15T11:01:47;5.32;;;0.80;;
71503;SDS011;59323;50.874;7.028;2023-01-15T11:04:17;5.60;;;0.80;;
71503;SDS011;59323;50.874;7.028;2023-01-15T11:06:43;4.45;;;0.98;;
71503;SDS011;59323;50.874;7.028;2023-01-15T11:09:15;7.83;;;0.80;;
71503;SDS011;59323;50.874;7.028;2023-01-15T11:11:48;4.82;;;0.70;;
71503;SDS011;59323;50.874;7.028;2023-01-15T11:17:22;5.30;;;0.80;;
71503;SDS011;59323;50.874;7.028;2023-01-15T11:23:11;5.72;;;0.73;;
71503;SDS011;59323;50.874;7.028;2023-01-15T11:25:46;5.82;;;0.90;;
71503;SDS011;59323;50.874;7.028;2023-01-15T11:28:29;4.43;;;1.40;;
71503;SDS011;59323;50.874;7.028;2023-01-15T11:30:59;2.87;;;0.90;;
71503;SDS011;59323;50.874;7.028;2023-01-15T11:33:34;6.10;;;0.50;;
71503;SDS011;59323;50.874;7.028;2023-01-15T11:36:06;3.58;;;0.50;;
71503;SDS011;59323;50.874;7.028;2023-01-15T11:38:45;5.32;;;0.60;;
71503;SDS011;59323;50.874;7.028;2023-01-15T11:41:28;8.52;;;0.60;;
71503;SDS011;59323;50.874;7.028;2023-01-15T11:44:17;3.40;;;0.50;;
71503;SDS011;59323;50.874;7.028;2023-01-15T11:47:02;4.72;;;0.70;;
71503;SDS011;59323;50.874;7.028;2023-01-15T11:49:53;5.57;;;0.60;;
71503;SDS011;59323;50.874;7.028;2023-01-15T11:52:40;5.05;;;1.00;;
71503;SDS011;59323;50.874;7.028;2023-01-15T11:55:13;7.43;;;0.57;;
71503;SDS011;59323;50.874;7.028;2023-01-15T11:57:42;5.03;;;0.60;;
71503;SDS011;59323;50.874;7.028;2023-01-15T12:02:48;3.75;;;0.57;;
71503;SDS011;59323;50.874;7.028;2023-01-15T12:05:17;5.15;;;0.63;;
71503;SDS011;59323;50.874;7.028;2023-01-15T12:07:45;6.63;;;0.80;;
71503;SDS011;59323;50.874;7.028;2023-01-15T12:13:06;6.88;;;0.65;;
71503;SDS011;59323;50.874;7.028;2023-01-15T12:24:39;5.80;;;0.50;;
71503;SDS011;59323;50.874;7.028;2023-01-15T12:30:38;6.75;;;0.90;;
71503;SDS011;59323;50.874;7.028;2023-01-15T12:35:43;3.15;;;0.70;;
71503;SDS011;59323;50.874;7.028;2023-01-15T12:41:11;5.55;;;0.60;;
71503;SDS011;59323;50.874;7.028;2023-01-15T12:43:39;2.05;;;0.65;;
71503;SDS011;59323;50.874;7.028;2023-01-15T12:46:28;3.88;;;0.77;;
71503;SDS011;59323;50.874;7.028;2023-01-15T12:48:57;4.97;;;0.50;;
71503;SDS011;59323;50.874;7.028;2023-01-15T12:51:35;2.07;;;0.40;;
71503;SDS011;59323;50.874;7.028;2023-01-15T12:54:10;5.15;;;0.50;;
71503;SDS011;59323;50.874;7.028;2023-01-15T12:56:59;4.10;;;0.60;;
71503;SDS011;59323;50.874;7.028;2023-01-15T12:59:33;5.55;;;0.90;;
71503;SDS011;59323;50.874;7.028;2023-01-15T13:07:55;4.50;;;0.52;;
71503;SDS011;59323;50.874;7.028;2023-01-15T13:10:26;3.50;;;0.60;;
71503;SDS011;59323;50.874;7.028;2023-01-15T13:12:57;4.55;;;0.88;;
71503;SDS011;59323;50.874;7.028;2023-01-15T13:15:27;5.03;;;0.70;;
71503;SDS011;59323;50.874;7.028;2023-01-15T13:17:59;5.30;;;0.50;;
71503;SDS011;59323;50.874;7.028;2023-01-15T13:34:30;3.25;;;0.50;;
71503;SDS011;59323;50.874;7.028;2023-01-15T13:37:09;4.22;;;0.60;;
71503;SDS011;59323;50.874;7.028;2023-01-15T13:39:40;2.28;;;0.45;;
71503;SDS011;59323;50.874;7.028;2023-01-15T13:42:23;3.75;;;0.82;;
71503;SDS011;59323;50.874;7.028;2023-01-15T13:44:57;5.07;;;0.70;;
71503;SDS011;59323;50.874;7.028;2023-01-15T13:47:44;2.90;;;0.63;;
71503;SDS011;59323;50.874;7.028;2023-01-15T13:50:17;3.63;;;0.30;;
71503;SDS011;59323;50.874;7.028;2023-01-15T13:52:47;2.78;;;0.35;;
71503;SDS011;59323;50.874;7.028;2023-01-15T13:55:20;1.60;;;0.33;;
71503;SDS011;59323;50.874;7.028;2023-01-15T13:57:53;3.55;;;0.60;;
71503;SDS011;59323;50.874;7.028;2023-01-15T14:00:26;7.23;;;0.90;;
71503;SDS011;59323;50.874;7.028;2023-01-15T14:02:53;1.70;;;0.50;;
71503;SDS011;59323;50.874;7.028;2023-01-15T14:07:53;3.60;;;0.65;;
71503;SDS011;59323;50.874;7.028;2023-01-15T14:18:09;3.53;;;0.63;;
71503;SDS011;59323;50.874;7.028;2023-01-15T14:20:46;2.45;;;0.52;;
71503;SDS011;59323;50.874;7.028;2023-01-15T14:23:26;3.10;;;0.40;;
71503;SDS011;59323;50.874;7.028;2023-01-15T14:34:21;2.83;;;0.73;;
71503;SDS011;59323;50.874;7.028;2023-01-15T14:37:06;2.90;;;0.43;;
71503;SDS011;59323;50.874;7.028;2023-01-15T14:40:00;5.78;;;0.47;;
71503;SDS011;59323;50.874;7.028;2023-01-15T14:42:35;2.95;;;0.40;;
71503;SDS011;59323;50.874;7.028;2023-01-15T14:48:19;3.35;;;0.63;;
71503;SDS011;59323;50.874;7.028;2023-01-15T14:53:47;1.88;;;0.65;;
71503;SDS011;59323;50.874;7.028;2023-01-15T14:56:19;6.45;;;1.10;;
71503;SDS011;59323;50.874;7.028;2023-01-15T15:03:48;2.63;;;0.60;;
71503;SDS011;59323;50.874;7.028;2023-01-15T15:06:17;4.25;;;0.73;;
71503;SDS011;59323;50.874;7.028;2023-01-15T15:08:48;0.77;;;0.40;;
71503;SDS011;59323;50.874;7.028;2023-01-15T15:11:22;4.05;;;0.70;;
71503;SDS011;59323;50.874;7.028;2023-01-15T15:14:11;1.45;;;0.50;;
71503;SDS011;59323;50.874;7.028;2023-01-15T15:16:41;4.33;;;0.60;;
71503;SDS011;59323;50.874;7.028;2023-01-15T15:19:33;4.38;;;0.60;;
71503;SDS011;59323;50.874;7.028;2023-01-15T15:22:06;3.00;;;0.40;;
71503;SDS011;59323;50.874;7.028;2023-01-15T15:24:49;3.35;;;0.57;;
71503;SDS011;59323;50.874;7.028;2023-01-15T15:27:20;4.93;;;0.55;;
71503;SDS011;59323;50.874;7.028;2023-01-15T15:29:47;3.47;;;0.60;;
71503;SDS011;59323;50.874;7.028;2023-01-15T15:32:14;3.70;;;0.73;;
71503;SDS011;59323;50.874;7.028;2023-01-15T15:34:43;3.22;;;0.70;;
71503;SDS011;59323;50.874;7.028;2023-01-15T15:37:15;3.78;;;0.40;;
71503;SDS011;59323;50.874;7.028;2023-01-15T15:45:15;3.92;;;0.80;;
71503;SDS011;59323;50.874;7.028;2023-01-15T15:48:17;3.05;;;0.60;;
71503;SDS011;59323;50.874;7.028;2023-01-15T15:51:04;2.72;;;0.60;;
71503;SDS011;59323;50.874;7.028;2023-01-15T15:53:46;2.50;;;0.50;;
71503;SDS011;59323;50.874;7.028;2023-01-15T15:56:11;5.40;;;0.55;;
71503;SDS011;59323;50.874;7.028;2023-01-15T15:58:37;3.27;;;0.47;;
71503;SDS011;59323;50.874;7.028;2023-01-15T16:01:03;3.60;;;0.50;;
71503;SDS011;59323;50.874;7.028;2023-01-15T16:03:29;2.03;;;0.40;;
71503;SDS011;59323;50.874;7.028;2023-01-15T16:06:06;2.30;;;0.80;;
71503;SDS011;59323;50.874;7.028;2023-01-15T16:08:32;4.57;;;0.47;;
71503;SDS011;59323;50.874;7.028;2023-01-15T16:11:09;2.07;;;0.53;;
71503;SDS011;59323;50.874;7.028;2023-01-15T16:13:43;5.38;;;0.50;;
71503;SDS011;59323;50.874;7.028;2023-01-15T16:16:11;4.10;;;0.55;;
71503;SDS011;59323;50.874;7.028;2023-01-15T16:18:44;1.45;;;0.47;;
71503;SDS011;59323;50.874;7.028;2023-01-15T16:21:16;3.85;;;0.52;;
71503;SDS011;59323;50.874;7.028;2023-01-15T16:23:54;3.10;;;0.40;;
71503;SDS011;59323;50.874;7.028;2023-01-15T16:26:27;2.47;;;0.55;;
71503;SDS011;59323;50.874;7.028;2023-01-15T16:29:05;3.20;;;0.60;;
71503;SDS011;59323;50.874;7.028;2023-01-15T16:31:40;3.50;;;0.60;;
71503;SDS011;59323;50.874;7.028;2023-01-15T16:34:05;3.30;;;0.40;;
71503;SDS011;59323;50.874;7.028;2023-01-15T16:36:38;3.85;;;0.63;;
71503;SDS011;59323;50.874;7.028;2023-01-15T16:39:06;5.97;;;0.60;;
71503;SDS011;59323;50.874;7.028;2023-01-15T16:41:46;4.82;;;1.00;;
71503;SDS011;59323;50.874;7.028;2023-01-15T16:44:58;5.13;;;1.00;;
71503;SDS011;59323;50.874;7.028;2023-01-15T16:47:00;3.75;;;0.70;;
71503;SDS011;59323;50.874;7.028;2023-01-15T16:49:29;5.05;;;1.10;;
71503;SDS011;59323;50.874;7.028;2023-01-15T16:51:56;3.07;;;1.10;;
71503;SDS011;59323;50.874;7.028;2023-01-15T16:57:04;4.82;;;1.02;;
71503;SDS011;59323;50.874;7.028;2023-01-15T16:59:56;6.38;;;1.00;;
71503;SDS011;59323;50.874;7.028;2023-01-15T17:02:21;4.32;;;0.80;;
71503;SDS011;59323;50.874;7.028;2023-01-15T17:04:47;6.43;;;1.30;;
71503;SDS011;59323;50.874;7.028;2023-01-15T17:07:17;3.53;;;0.98;;
71503;SDS011;59323;50.874;7.028;2023-01-15T17:09:47;5.93;;;1.10;;
71503;SDS011;59323;50.874;7.028;2023-01-15T17:14:52;6.77;;;1.23;;
71503;SDS011;59323;50.874;7.028;2023-01-15T17:19:43;7.27;;;1.67;;
71503;SDS011;59323;50.874;7.028;2023-01-15T17:22:10;9.83;;;2.43;;
71503;SDS011;59323;50.874;7.028;2023-01-15T17:24:46;4.47;;;1.35;;
71503;SDS011;59323;50.874;7.028;2023-01-15T17:27:15;4.72;;;1.17;;
71503;SDS011;59323;50.874;7.028;2023-01-15T17:29:40;6.40;;;2.53;;
71503;SDS011;59323;50.874;7.028;2023-01-15T17:32:09;7.30;;;0.93;;
71503;SDS011;59323;50.874;7.028;2023-01-15T17:34:49;7.75;;;2.90;;
71503;SDS011;59323;50.874;7.028;2023-01-15T17:37:15;7.40;;;2.30;;